sensor_id;sensor_type;location;lat;lon;timestamp;temperature;humidity
8338;DHT22;4206;48.634;9.516;2023-07-20T00:01:15;19.70;97.30
8338;DHT22;4206;48.634;9.516;2023-07-20T00:03:43;20.50;98.10
8338;DHT22;4206;48.634;9.516;2023-07-20T00:06:10;20.50;97.90
8338;DHT22;4206;48.634;9.516;2023-07-20T00:08:37;20.40;97.90
8338;DHT22;4206;48.634;9.516;2023-07-20T00:11:03;20.30;98.20
8338;DHT22;4206;48.634;9.516;2023-07-20T00:13:30;20.30;98.10
8338;DHT22;4206;48.634;9.516;2023-07-20T00:15:57;20.30;98.00
8338;DHT22;4206;48.634;9.516;2023-07-20T00:18:24;20.10;98.20
8338;DHT22;4206;48.634;9.516;2023-07-20T00:20:51;20.10;97.40
8338;DHT22;4206;48.634;9.516;2023-07-20T00:23:18;20.10;96.80
8338;DHT22;4206;48.634;9.516;2023-07-20T00:25:49;20.10;96.60
8338;DHT22;4206;48.634;9.516;2023-07-20T00:28:16;20.10;96.20
8338;DHT22;4206;48.634;9.516;2023-07-20T00:30:43;20.00;95.80
8338;DHT22;4206;48.634;9.516;2023-07-20T00:33:11;20.00;96.20
8338;DHT22;4206;48.634;9.516;2023-07-20T00:35:39;20.00;96.40
8338;DHT22;4206;48.634;9.516;2023-07-20T00:38:06;20.00;96.70
8338;DHT22;4206;48.634;9.516;2023-07-20T00:40:40;20.10;96.20
8338;DHT22;4206;48.634;9.516;2023-07-20T00:43:08;20.00;96.20
8338;DHT22;4206;48.634;9.516;2023-07-20T00:45:36;19.90;95.90
8338;DHT22;4206;48.634;9.516;2023-07-20T00:48:04;19.90;96.10
8338;DHT22;4206;48.634;9.516;2023-07-20T00:50:34;19.80;95.90
8338;DHT22;4206;48.634;9.516;2023-07-20T00:53:02;19.90;96.00
8338;DHT22;4206;48.634;9.516;2023-07-20T00:55:31;19.90;95.90
8338;DHT22;4206;48.634;9.516;2023-07-20T00:57:59;19.90;96.10
8338;DHT22;4206;48.634;9.516;2023-07-20T01:00:26;19.90;95.50
8338;DHT22;4206;48.634;9.516;2023-07-20T01:02:54;19.90;96.10
8338;DHT22;4206;48.634;9.516;2023-07-20T01:05:24;19.80;96.20
8338;DHT22;4206;48.634;9.516;2023-07-20T01:07:59;19.80;96.40
8338;DHT22;4206;48.634;9.516;2023-07-20T01:10:33;19.70;96.60
8338;DHT22;4206;48.634;9.516;2023-07-20T01:13:03;19.90;96.70
8338;DHT22;4206;48.634;9.516;2023-07-20T01:15:34;19.90;97.30
8338;DHT22;4206;48.634;9.516;2023-07-20T01:18:01;19.70;97.40
8338;DHT22;4206;48.634;9.516;2023-07-20T01:20:30;19.80;97.50
8338;DHT22;4206;48.634;9.516;2023-07-20T01:31:41;19.60;97.90
8338;DHT22;4206;48.634;9.516;2023-07-20T01:34:12;19.60;97.50
8338;DHT22;4206;48.634;9.516;2023-07-20T01:36:43;19.50;97.60
8338;DHT22;4206;48.634;9.516;2023-07-20T01:39:11;19.50;97.50
8338;DHT22;4206;48.634;9.516;2023-07-20T01:41:38;19.50;97.20
8338;DHT22;4206;48.634;9.516;2023-07-20T01:44:05;19.40;97.00
8338;DHT22;4206;48.634;9.516;2023-07-20T01:46:32;19.40;97.00
8338;DHT22;4206;48.634;9.516;2023-07-20T01:48:59;19.40;96.60
8338;DHT22;4206;48.634;9.516;2023-07-20T01:51:26;19.40;96.60
8338;DHT22;4206;48.634;9.516;2023-07-20T01:53:53;19.40;96.60
8338;DHT22;4206;48.634;9.516;2023-07-20T01:56:20;19.30;96.70
8338;DHT22;4206;48.634;9.516;2023-07-20T01:58:47;19.30;96.20
8338;DHT22;4206;48.634;9.516;2023-07-20T02:01:14;19.20;96.50
8338;DHT22;4206;48.634;9.516;2023-07-20T02:03:41;19.20;96.50
8338;DHT22;4206;48.634;9.516;2023-07-20T02:06:08;19.20;96.70
8338;DHT22;4206;48.634;9.516;2023-07-20T02:08:35;19.20;96.70
8338;DHT22;4206;48.634;9.516;2023-07-20T02:11:02;19.00;96.80
8338;DHT22;4206;48.634;9.516;2023-07-20T02:13:29;19.10;96.90
8338;DHT22;4206;48.634;9.516;2023-07-20T02:15:56;19.10;97.00
8338;DHT22;4206;48.634;9.516;2023-07-20T02:18:23;19.00;97.20
8338;DHT22;4206;48.634;9.516;2023-07-20T02:20:50;19.10;97.20
8338;DHT22;4206;48.634;9.516;2023-07-20T02:23:19;18.90;97.00
8338;DHT22;4206;48.634;9.516;2023-07-20T02:25:45;18.90;97.20
8338;DHT22;4206;48.634;9.516;2023-07-20T02:28:14;18.90;97.40
8338;DHT22;4206;48.634;9.516;2023-07-20T02:30:41;18.80;97.50
8338;DHT22;4206;48.634;9.516;2023-07-20T02:33:08;18.70;97.70
8338;DHT22;4206;48.634;9.516;2023-07-20T02:35:35;18.60;97.80
8338;DHT22;4206;48.634;9.516;2023-07-20T02:38:02;18.50;98.60
8338;DHT22;4206;48.634;9.516;2023-07-20T02:40:29;18.40;98.20
8338;DHT22;4206;48.634;9.516;2023-07-20T02:42:56;18.40;98.10
8338;DHT22;4206;48.634;9.516;2023-07-20T02:45:23;18.40;98.60
8338;DHT22;4206;48.634;9.516;2023-07-20T02:47:50;18.30;98.30
8338;DHT22;4206;48.634;9.516;2023-07-20T02:50:17;18.60;98.40
8338;DHT22;4206;48.634;9.516;2023-07-20T02:52:44;18.60;98.40
8338;DHT22;4206;48.634;9.516;2023-07-20T02:55:11;18.60;98.50
8338;DHT22;4206;48.634;9.516;2023-07-20T02:57:38;18.60;98.80
8338;DHT22;4206;48.634;9.516;2023-07-20T03:00:06;18.50;98.70
8338;DHT22;4206;48.634;9.516;2023-07-20T03:02:33;18.50;98.90
8338;DHT22;4206;48.634;9.516;2023-07-20T03:05:00;18.40;98.50
8338;DHT22;4206;48.634;9.516;2023-07-20T03:07:29;19.20;99.00
8338;DHT22;4206;48.634;9.516;2023-07-20T03:09:56;18.40;98.70
8338;DHT22;4206;48.634;9.516;2023-07-20T03:12:23;18.40;98.70
8338;DHT22;4206;48.634;9.516;2023-07-20T03:14:51;18.50;98.70
8338;DHT22;4206;48.634;9.516;2023-07-20T03:17:18;18.40;98.90
8338;DHT22;4206;48.634;9.516;2023-07-20T03:19:46;17.40;98.40
8338;DHT22;4206;48.634;9.516;2023-07-20T03:22:13;18.40;99.10
8338;DHT22;4206;48.634;9.516;2023-07-20T03:24:40;18.20;99.00
8338;DHT22;4206;48.634;9.516;2023-07-20T03:27:07;18.30;99.10
8338;DHT22;4206;48.634;9.516;2023-07-20T03:29:34;18.20;99.50
8338;DHT22;4206;48.634;9.516;2023-07-20T03:32:01;18.00;99.40
8338;DHT22;4206;48.634;9.516;2023-07-20T03:34:28;17.90;99.60
8338;DHT22;4206;48.634;9.516;2023-07-20T03:36:55;17.90;99.90
8338;DHT22;4206;48.634;9.516;2023-07-20T03:39:22;17.60;99.90
8338;DHT22;4206;48.634;9.516;2023-07-20T03:41:49;17.50;99.90
8338;DHT22;4206;48.634;9.516;2023-07-20T03:44:16;17.40;99.90
8338;DHT22;4206;48.634;9.516;2023-07-20T03:46:43;16.30;99.90
8338;DHT22;4206;48.634;9.516;2023-07-20T03:49:10;17.20;99.90
8338;DHT22;4206;48.634;9.516;2023-07-20T03:51:38;17.10;99.90
8338;DHT22;4206;48.634;9.516;2023-07-20T03:54:05;17.00;99.90
8338;DHT22;4206;48.634;9.516;2023-07-20T03:56:32;17.00;99.90
8338;DHT22;4206;48.634;9.516;2023-07-20T03:59:02;16.90;99.90
8338;DHT22;4206;48.634;9.516;2023-07-20T04:01:29;16.80;99.90
8338;DHT22;4206;48.634;9.516;2023-07-20T04:03:56;16.80;99.90
8338;DHT22;4206;48.634;9.516;2023-07-20T04:06:23;16.80;99.90
8338;DHT22;4206;48.634;9.516;2023-07-20T04:08:50;16.60;99.90
8338;DHT22;4206;48.634;9.516;2023-07-20T04:11:17;16.60;99.90
8338;DHT22;4206;48.634;9.516;2023-07-20T04:13:44;16.60;99.90
8338;DHT22;4206;48.634;9.516;2023-07-20T04:16:11;16.40;99.90
8338;DHT22;4206;48.634;9.516;2023-07-20T04:18:38;16.70;99.90
8338;DHT22;4206;48.634;9.516;2023-07-20T04:21:07;16.70;99.90
8338;DHT22;4206;48.634;9.516;2023-07-20T04:23:34;16.80;99.90
8338;DHT22;4206;48.634;9.516;2023-07-20T04:26:02;16.80;99.90
8338;DHT22;4206;48.634;9.516;2023-07-20T04:28:28;16.80;99.90
8338;DHT22;4206;48.634;9.516;2023-07-20T04:30:55;16.90;99.90
8338;DHT22;4206;48.634;9.516;2023-07-20T04:33:35;17.00;99.90
8338;DHT22;4206;48.634;9.516;2023-07-20T04:36:02;17.00;99.90
8338;DHT22;4206;48.634;9.516;2023-07-20T04:38:29;17.10;99.90
8338;DHT22;4206;48.634;9.516;2023-07-20T04:40:56;17.00;99.90
8338;DHT22;4206;48.634;9.516;2023-07-20T04:43:23;17.10;99.90
8338;DHT22;4206;48.634;9.516;2023-07-20T04:45:50;17.20;99.90
8338;DHT22;4206;48.634;9.516;2023-07-20T04:48:17;17.30;99.90
8338;DHT22;4206;48.634;9.516;2023-07-20T04:50:45;17.20;99.90
8338;DHT22;4206;48.634;9.516;2023-07-20T04:53:13;17.30;99.90
8338;DHT22;4206;48.634;9.516;2023-07-20T04:55:40;17.30;99.90
8338;DHT22;4206;48.634;9.516;2023-07-20T04:58:07;17.40;99.90
8338;DHT22;4206;48.634;9.516;2023-07-20T05:00:34;17.50;99.90
8338;DHT22;4206;48.634;9.516;2023-07-20T05:03:01;17.60;99.90
8338;DHT22;4206;48.634;9.516;2023-07-20T05:05:28;17.60;99.90
8338;DHT22;4206;48.634;9.516;2023-07-20T05:07:55;17.80;99.90
8338;DHT22;4206;48.634;9.516;2023-07-20T05:10:23;17.80;99.90
8338;DHT22;4206;48.634;9.516;2023-07-20T05:12:50;17.80;99.90
8338;DHT22;4206;48.634;9.516;2023-07-20T05:15:17;17.80;99.90
8338;DHT22;4206;48.634;9.516;2023-07-20T05:17:44;17.80;99.90
8338;DHT22;4206;48.634;9.516;2023-07-20T05:20:11;17.80;99.90
8338;DHT22;4206;48.634;9.516;2023-07-20T05:22:39;17.80;99.90
8338;DHT22;4206;48.634;9.516;2023-07-20T05:25:07;17.90;99.90
8338;DHT22;4206;48.634;9.516;2023-07-20T05:27:36;18.00;99.90
8338;DHT22;4206;48.634;9.516;2023-07-20T05:30:04;18.10;99.90
8338;DHT22;4206;48.634;9.516;2023-07-20T05:32:31;18.10;99.90
8338;DHT22;4206;48.634;9.516;2023-07-20T05:34:58;18.10;99.90
8338;DHT22;4206;48.634;9.516;2023-07-20T05:37:26;18.30;99.90
8338;DHT22;4206;48.634;9.516;2023-07-20T05:39:52;18.20;99.90
8338;DHT22;4206;48.634;9.516;2023-07-20T05:42:19;18.30;99.90
8338;DHT22;4206;48.634;9.516;2023-07-20T05:44:46;18.30;99.90
8338;DHT22;4206;48.634;9.516;2023-07-20T05:47:14;18.30;99.90
8338;DHT22;4206;48.634;9.516;2023-07-20T05:49:41;18.30;99.90
8338;DHT22;4206;48.634;9.516;2023-07-20T05:52:08;18.40;99.90
8338;DHT22;4206;48.634;9.516;2023-07-20T05:54:35;18.50;99.90
8338;DHT22;4206;48.634;9.516;2023-07-20T05:57:02;18.70;99.90
8338;DHT22;4206;48.634;9.516;2023-07-20T05:59:29;18.80;99.90
8338;DHT22;4206;48.634;9.516;2023-07-20T06:01:56;18.80;99.90
8338;DHT22;4206;48.634;9.516;2023-07-20T06:04:23;19.00;99.90
8338;DHT22;4206;48.634;9.516;2023-07-20T06:06:50;19.20;99.90
8338;DHT22;4206;48.634;9.516;2023-07-20T06:09:17;20.60;99.90
8338;DHT22;4206;48.634;9.516;2023-07-20T06:11:44;19.30;99.90
8338;DHT22;4206;48.634;9.516;2023-07-20T06:14:11;19.30;99.90
8338;DHT22;4206;48.634;9.516;2023-07-20T06:16:38;19.40;99.90
8338;DHT22;4206;48.634;9.516;2023-07-20T06:19:05;19.60;99.90
8338;DHT22;4206;48.634;9.516;2023-07-20T06:21:31;19.70;99.90
8338;DHT22;4206;48.634;9.516;2023-07-20T06:23:58;19.90;99.90
8338;DHT22;4206;48.634;9.516;2023-07-20T06:26:25;20.00;99.90
8338;DHT22;4206;48.634;9.516;2023-07-20T06:28:52;20.00;99.90
8338;DHT22;4206;48.634;9.516;2023-07-20T06:31:19;20.00;99.90
8338;DHT22;4206;48.634;9.516;2023-07-20T06:33:46;20.20;99.90
8338;DHT22;4206;48.634;9.516;2023-07-20T06:36:17;20.30;99.90
8338;DHT22;4206;48.634;9.516;2023-07-20T06:38:44;20.30;99.90
8338;DHT22;4206;48.634;9.516;2023-07-20T06:41:31;20.40;99.90
8338;DHT22;4206;48.634;9.516;2023-07-20T06:44:01;20.50;99.90
8338;DHT22;4206;48.634;9.516;2023-07-20T06:46:27;20.60;99.90
8338;DHT22;4206;48.634;9.516;2023-07-20T06:48:54;20.60;99.90
8338;DHT22;4206;48.634;9.516;2023-07-20T06:51:24;20.70;99.90
8338;DHT22;4206;48.634;9.516;2023-07-20T06:53:52;20.90;99.90
8338;DHT22;4206;48.634;9.516;2023-07-20T06:56:19;21.10;99.90
8338;DHT22;4206;48.634;9.516;2023-07-20T06:58:50;21.10;99.90
8338;DHT22;4206;48.634;9.516;2023-07-20T07:01:18;21.20;99.90
8338;DHT22;4206;48.634;9.516;2023-07-20T07:03:48;21.20;99.80
8338;DHT22;4206;48.634;9.516;2023-07-20T07:06:19;21.20;99.70
8338;DHT22;4206;48.634;9.516;2023-07-20T07:08:48;21.10;99.90
8338;DHT22;4206;48.634;9.516;2023-07-20T07:11:15;21.20;99.40
8338;DHT22;4206;48.634;9.516;2023-07-20T07:13:42;21.40;99.90
8338;DHT22;4206;48.634;9.516;2023-07-20T07:16:09;21.40;99.30
8338;DHT22;4206;48.634;9.516;2023-07-20T07:18:36;21.90;99.80
8338;DHT22;4206;48.634;9.516;2023-07-20T07:21:03;22.10;99.80
8338;DHT22;4206;48.634;9.516;2023-07-20T07:23:30;22.40;99.40
8338;DHT22;4206;48.634;9.516;2023-07-20T07:25:57;22.90;99.00
8338;DHT22;4206;48.634;9.516;2023-07-20T07:28:24;23.00;98.90
8338;DHT22;4206;48.634;9.516;2023-07-20T07:30:51;22.80;99.30
8338;DHT22;4206;48.634;9.516;2023-07-20T07:33:18;22.70;99.50
8338;DHT22;4206;48.634;9.516;2023-07-20T07:35:44;22.60;98.40
8338;DHT22;4206;48.634;9.516;2023-07-20T07:38:11;22.20;98.10
8338;DHT22;4206;48.634;9.516;2023-07-20T07:40:59;22.30;98.50
8338;DHT22;4206;48.634;9.516;2023-07-20T07:43:26;22.60;99.40
8338;DHT22;4206;48.634;9.516;2023-07-20T07:45:54;22.70;99.10
8338;DHT22;4206;48.634;9.516;2023-07-20T07:48:22;23.10;98.60
8338;DHT22;4206;48.634;9.516;2023-07-20T07:50:49;23.40;98.40
8338;DHT22;4206;48.634;9.516;2023-07-20T07:53:16;23.10;97.70
8338;DHT22;4206;48.634;9.516;2023-07-20T07:55:44;23.40;97.90
8338;DHT22;4206;48.634;9.516;2023-07-20T07:58:11;23.60;97.70
8338;DHT22;4206;48.634;9.516;2023-07-20T08:00:38;23.60;97.20
8338;DHT22;4206;48.634;9.516;2023-07-20T08:03:07;23.90;97.20
8338;DHT22;4206;48.634;9.516;2023-07-20T08:05:34;23.90;97.20
8338;DHT22;4206;48.634;9.516;2023-07-20T08:08:02;23.80;97.50
8338;DHT22;4206;48.634;9.516;2023-07-20T08:10:31;24.10;97.40
8338;DHT22;4206;48.634;9.516;2023-07-20T08:12:58;24.80;96.50
8338;DHT22;4206;48.634;9.516;2023-07-20T08:15:24;24.80;96.40
8338;DHT22;4206;48.634;9.516;2023-07-20T08:17:51;25.20;96.10
8338;DHT22;4206;48.634;9.516;2023-07-20T08:20:19;25.40;96.20
8338;DHT22;4206;48.634;9.516;2023-07-20T08:22:46;25.30;95.00
8338;DHT22;4206;48.634;9.516;2023-07-20T08:25:14;25.40;95.40
8338;DHT22;4206;48.634;9.516;2023-07-20T08:27:41;25.60;95.10
8338;DHT22;4206;48.634;9.516;2023-07-20T08:30:08;26.00;94.80
8338;DHT22;4206;48.634;9.516;2023-07-20T08:32:36;26.60;94.10
8338;DHT22;4206;48.634;9.516;2023-07-20T08:35:03;26.80;94.00
8338;DHT22;4206;48.634;9.516;2023-07-20T08:37:30;27.40;93.30
8338;DHT22;4206;48.634;9.516;2023-07-20T08:39:57;26.90;92.90
8338;DHT22;4206;48.634;9.516;2023-07-20T08:42:23;27.00;92.40
8338;DHT22;4206;48.634;9.516;2023-07-20T08:44:52;27.00;91.80
8338;DHT22;4206;48.634;9.516;2023-07-20T08:47:21;26.80;92.30
8338;DHT22;4206;48.634;9.516;2023-07-20T08:49:49;27.10;91.50
8338;DHT22;4206;48.634;9.516;2023-07-20T08:52:16;27.30;90.90
8338;DHT22;4206;48.634;9.516;2023-07-20T08:54:43;26.80;90.30
8338;DHT22;4206;48.634;9.516;2023-07-20T08:57:11;27.30;90.80
8338;DHT22;4206;48.634;9.516;2023-07-20T08:59:41;26.40;90.00
8338;DHT22;4206;48.634;9.516;2023-07-20T09:02:12;26.70;91.50
8338;DHT22;4206;48.634;9.516;2023-07-20T09:04:44;27.60;88.90
8338;DHT22;4206;48.634;9.516;2023-07-20T09:07:12;27.50;88.50
8338;DHT22;4206;48.634;9.516;2023-07-20T09:09:41;27.60;87.80
8338;DHT22;4206;48.634;9.516;2023-07-20T09:12:16;28.20;88.90
8338;DHT22;4206;48.634;9.516;2023-07-20T09:14:44;28.60;87.90
8338;DHT22;4206;48.634;9.516;2023-07-20T09:17:14;29.10;86.70
8338;DHT22;4206;48.634;9.516;2023-07-20T09:19:47;29.50;85.30
8338;DHT22;4206;48.634;9.516;2023-07-20T09:22:15;30.40;82.20
8338;DHT22;4206;48.634;9.516;2023-07-20T09:24:44;30.70;82.00
8338;DHT22;4206;48.634;9.516;2023-07-20T09:27:11;31.00;80.40
8338;DHT22;4206;48.634;9.516;2023-07-20T09:29:48;31.90;79.40
8338;DHT22;4206;48.634;9.516;2023-07-20T09:32:20;32.30;78.00
8338;DHT22;4206;48.634;9.516;2023-07-20T09:34:51;32.70;77.10
8338;DHT22;4206;48.634;9.516;2023-07-20T09:37:22;32.20;73.20
8338;DHT22;4206;48.634;9.516;2023-07-20T09:39:52;32.30;76.30
8338;DHT22;4206;48.634;9.516;2023-07-20T09:42:22;32.30;75.50
8338;DHT22;4206;48.634;9.516;2023-07-20T09:44:52;31.70;74.70
8338;DHT22;4206;48.634;9.516;2023-07-20T09:47:23;32.10;74.50
8338;DHT22;4206;48.634;9.516;2023-07-20T09:49:58;32.30;73.50
8338;DHT22;4206;48.634;9.516;2023-07-20T09:52:29;32.30;72.80
8338;DHT22;4206;48.634;9.516;2023-07-20T09:55:00;31.00;75.90
8338;DHT22;4206;48.634;9.516;2023-07-20T09:57:27;30.90;75.20
8338;DHT22;4206;48.634;9.516;2023-07-20T09:59:54;30.20;77.10
8338;DHT22;4206;48.634;9.516;2023-07-20T10:02:25;28.90;79.00
8338;DHT22;4206;48.634;9.516;2023-07-20T10:05:01;28.20;80.90
8338;DHT22;4206;48.634;9.516;2023-07-20T10:07:30;27.80;81.90
8338;DHT22;4206;48.634;9.516;2023-07-20T10:09:59;28.00;82.00
8338;DHT22;4206;48.634;9.516;2023-07-20T10:12:28;29.00;83.10
8338;DHT22;4206;48.634;9.516;2023-07-20T10:15:06;30.20;79.10
8338;DHT22;4206;48.634;9.516;2023-07-20T10:17:54;30.60;78.10
8338;DHT22;4206;48.634;9.516;2023-07-20T10:20:24;31.30;79.10
8338;DHT22;4206;48.634;9.516;2023-07-20T10:22:53;31.80;78.10
8338;DHT22;4206;48.634;9.516;2023-07-20T10:25:23;32.50;76.50
8338;DHT22;4206;48.634;9.516;2023-07-20T10:27:50;33.20;73.30
8338;DHT22;4206;48.634;9.516;2023-07-20T10:30:18;33.60;73.10
8338;DHT22;4206;48.634;9.516;2023-07-20T10:32:46;33.20;71.40
8338;DHT22;4206;48.634;9.516;2023-07-20T10:35:15;33.00;72.00
8338;DHT22;4206;48.634;9.516;2023-07-20T10:38:01;32.50;72.30
8338;DHT22;4206;48.634;9.516;2023-07-20T10:40:30;31.10;71.70
8338;DHT22;4206;48.634;9.516;2023-07-20T10:43:03;29.80;72.30
8338;DHT22;4206;48.634;9.516;2023-07-20T10:45:49;28.80;75.20
8338;DHT22;4206;48.634;9.516;2023-07-20T10:48:22;28.10;77.00
8338;DHT22;4206;48.634;9.516;2023-07-20T10:51:08;28.30;78.80
8338;DHT22;4206;48.634;9.516;2023-07-20T10:53:35;27.70;78.10
8338;DHT22;4206;48.634;9.516;2023-07-20T10:56:19;27.60;79.90
8338;DHT22;4206;48.634;9.516;2023-07-20T10:58:47;27.20;80.90
8338;DHT22;4206;48.634;9.516;2023-07-20T11:01:16;27.20;80.40
8338;DHT22;4206;48.634;9.516;2023-07-20T11:03:49;27.50;79.70
8338;DHT22;4206;48.634;9.516;2023-07-20T11:11:43;30.30;76.80
8338;DHT22;4206;48.634;9.516;2023-07-20T11:14:21;29.40;77.40
8338;DHT22;4206;48.634;9.516;2023-07-20T11:16:50;28.60;77.40
8338;DHT22;4206;48.634;9.516;2023-07-20T11:19:18;28.20;78.60
8338;DHT22;4206;48.634;9.516;2023-07-20T11:21:52;27.60;79.30
8338;DHT22;4206;48.634;9.516;2023-07-20T11:24:29;27.10;80.70
8338;DHT22;4206;48.634;9.516;2023-07-20T11:26:56;26.80;79.90
8338;DHT22;4206;48.634;9.516;2023-07-20T11:29:24;26.80;79.90
8338;DHT22;4206;48.634;9.516;2023-07-20T11:31:59;26.90;81.30
8338;DHT22;4206;48.634;9.516;2023-07-20T11:34:26;28.10;76.60
8338;DHT22;4206;48.634;9.516;2023-07-20T11:36:54;27.80;76.60
8338;DHT22;4206;48.634;9.516;2023-07-20T11:39:25;27.80;76.10
8338;DHT22;4206;48.634;9.516;2023-07-20T11:41:55;27.50;75.20
8338;DHT22;4206;48.634;9.516;2023-07-20T11:44:24;28.50;73.60
8338;DHT22;4206;48.634;9.516;2023-07-20T11:49:44;30.30;73.40
8338;DHT22;4206;48.634;9.516;2023-07-20T11:52:16;30.80;73.90
8338;DHT22;4206;48.634;9.516;2023-07-20T11:54:43;29.60;74.00
8338;DHT22;4206;48.634;9.516;2023-07-20T11:57:17;28.70;74.40
8338;DHT22;4206;48.634;9.516;2023-07-20T12:00:01;28.30;75.90
8338;DHT22;4206;48.634;9.516;2023-07-20T12:02:31;29.30;75.60
8338;DHT22;4206;48.634;9.516;2023-07-20T12:04:58;30.90;73.20
8338;DHT22;4206;48.634;9.516;2023-07-20T12:10:11;34.00;68.30
8338;DHT22;4206;48.634;9.516;2023-07-20T12:12:40;34.70;68.10
8338;DHT22;4206;48.634;9.516;2023-07-20T12:15:25;35.10;65.00
8338;DHT22;4206;48.634;9.516;2023-07-20T12:17:55;34.20;62.20
8338;DHT22;4206;48.634;9.516;2023-07-20T12:28:11;30.10;72.80
8338;DHT22;4206;48.634;9.516;2023-07-20T12:30:39;32.00;69.50
8338;DHT22;4206;48.634;9.516;2023-07-20T12:33:06;32.40;68.20
8338;DHT22;4206;48.634;9.516;2023-07-20T12:35:34;33.90;67.60
8338;DHT22;4206;48.634;9.516;2023-07-20T12:38:01;34.50;64.80
8338;DHT22;4206;48.634;9.516;2023-07-20T12:40:28;33.90;64.90
8338;DHT22;4206;48.634;9.516;2023-07-20T12:42:55;34.40;64.80
8338;DHT22;4206;48.634;9.516;2023-07-20T12:45:22;34.60;61.30
8338;DHT22;4206;48.634;9.516;2023-07-20T12:47:49;33.80;62.60
8338;DHT22;4206;48.634;9.516;2023-07-20T12:50:16;33.80;64.40
8338;DHT22;4206;48.634;9.516;2023-07-20T12:52:43;33.50;64.60
8338;DHT22;4206;48.634;9.516;2023-07-20T12:55:10;33.50;65.00
8338;DHT22;4206;48.634;9.516;2023-07-20T12:57:37;33.60;63.50
8338;DHT22;4206;48.634;9.516;2023-07-20T13:00:06;33.60;64.90
8338;DHT22;4206;48.634;9.516;2023-07-20T13:02:35;34.90;62.20
8338;DHT22;4206;48.634;9.516;2023-07-20T13:05:03;35.80;61.80
8338;DHT22;4206;48.634;9.516;2023-07-20T13:07:32;35.90;60.00
8338;DHT22;4206;48.634;9.516;2023-07-20T13:10:03;35.80;61.40
8338;DHT22;4206;48.634;9.516;2023-07-20T13:12:32;34.90;61.10
8338;DHT22;4206;48.634;9.516;2023-07-20T13:15:02;35.30;61.20
8338;DHT22;4206;48.634;9.516;2023-07-20T13:17:33;34.80;59.00
8338;DHT22;4206;48.634;9.516;2023-07-20T13:20:00;33.90;60.00
8338;DHT22;4206;48.634;9.516;2023-07-20T13:22:27;33.00;61.30
8338;DHT22;4206;48.634;9.516;2023-07-20T13:24:54;32.10;64.80
8338;DHT22;4206;48.634;9.516;2023-07-20T13:27:21;31.90;65.20
8338;DHT22;4206;48.634;9.516;2023-07-20T13:29:48;31.60;63.90
8338;DHT22;4206;48.634;9.516;2023-07-20T13:32:16;31.60;63.40
8338;DHT22;4206;48.634;9.516;2023-07-20T13:34:45;31.00;63.50
8338;DHT22;4206;48.634;9.516;2023-07-20T13:37:15;31.30;64.00
8338;DHT22;4206;48.634;9.516;2023-07-20T13:39:43;31.50;64.50
8338;DHT22;4206;48.634;9.516;2023-07-20T13:42:11;32.30;63.70
8338;DHT22;4206;48.634;9.516;2023-07-20T13:44:39;32.60;63.70
8338;DHT22;4206;48.634;9.516;2023-07-20T13:47:06;33.80;60.80
8338;DHT22;4206;48.634;9.516;2023-07-20T13:49:37;34.20;61.10
8338;DHT22;4206;48.634;9.516;2023-07-20T13:52:14;33.70;61.70
8338;DHT22;4206;48.634;9.516;2023-07-20T13:54:44;33.80;60.70
8338;DHT22;4206;48.634;9.516;2023-07-20T13:57:17;33.40;61.70
8338;DHT22;4206;48.634;9.516;2023-07-20T13:59:44;32.40;62.50
8338;DHT22;4206;48.634;9.516;2023-07-20T14:02:14;31.50;63.80
8338;DHT22;4206;48.634;9.516;2023-07-20T14:04:44;32.10;63.70
8338;DHT22;4206;48.634;9.516;2023-07-20T14:07:12;31.80;65.50
8338;DHT22;4206;48.634;9.516;2023-07-20T14:09:42;32.10;62.80
8338;DHT22;4206;48.634;9.516;2023-07-20T14:12:12;32.10;60.80
8338;DHT22;4206;48.634;9.516;2023-07-20T14:14:43;31.70;61.60
8338;DHT22;4206;48.634;9.516;2023-07-20T14:17:10;32.20;63.20
8338;DHT22;4206;48.634;9.516;2023-07-20T14:19:37;31.80;61.80
8338;DHT22;4206;48.634;9.516;2023-07-20T14:22:05;32.20;62.70
8338;DHT22;4206;48.634;9.516;2023-07-20T14:24:32;31.80;63.10
8338;DHT22;4206;48.634;9.516;2023-07-20T14:26:59;31.90;62.00
8338;DHT22;4206;48.634;9.516;2023-07-20T14:29:27;32.00;62.10
8338;DHT22;4206;48.634;9.516;2023-07-20T14:31:58;31.30;62.90
8338;DHT22;4206;48.634;9.516;2023-07-20T14:34:25;31.40;63.00
8338;DHT22;4206;48.634;9.516;2023-07-20T14:36:52;31.10;62.90
8338;DHT22;4206;48.634;9.516;2023-07-20T14:39:19;30.90;62.50
8338;DHT22;4206;48.634;9.516;2023-07-20T14:41:47;30.90;64.30
8338;DHT22;4206;48.634;9.516;2023-07-20T14:44:14;31.10;63.40
8338;DHT22;4206;48.634;9.516;2023-07-20T14:46:41;30.40;61.10
8338;DHT22;4206;48.634;9.516;2023-07-20T14:49:15;30.50;62.90
8338;DHT22;4206;48.634;9.516;2023-07-20T14:51:42;30.40;62.80
8338;DHT22;4206;48.634;9.516;2023-07-20T14:54:13;30.10;63.20
8338;DHT22;4206;48.634;9.516;2023-07-20T14:56:49;30.20;65.00
8338;DHT22;4206;48.634;9.516;2023-07-20T14:59:17;30.00;63.80
8338;DHT22;4206;48.634;9.516;2023-07-20T15:01:44;29.60;62.20
8338;DHT22;4206;48.634;9.516;2023-07-20T15:04:13;29.40;63.80
8338;DHT22;4206;48.634;9.516;2023-07-20T15:06:41;29.00;64.10
8338;DHT22;4206;48.634;9.516;2023-07-20T15:09:08;28.90;65.80
8338;DHT22;4206;48.634;9.516;2023-07-20T15:11:36;28.90;66.50
8338;DHT22;4206;48.634;9.516;2023-07-20T15:14:03;29.40;65.40
8338;DHT22;4206;48.634;9.516;2023-07-20T15:16:30;29.00;65.30
8338;DHT22;4206;48.634;9.516;2023-07-20T15:18:57;29.00;64.20
8338;DHT22;4206;48.634;9.516;2023-07-20T15:21:24;29.10;65.30
8338;DHT22;4206;48.634;9.516;2023-07-20T15:23:52;29.30;65.50
8338;DHT22;4206;48.634;9.516;2023-07-20T15:26:19;29.20;64.80
8338;DHT22;4206;48.634;9.516;2023-07-20T15:28:48;29.10;63.90
8338;DHT22;4206;48.634;9.516;2023-07-20T15:31:15;29.10;62.30
8338;DHT22;4206;48.634;9.516;2023-07-20T15:33:41;28.90;63.20
8338;DHT22;4206;48.634;9.516;2023-07-20T15:36:10;28.50;65.90
8338;DHT22;4206;48.634;9.516;2023-07-20T15:38:37;28.20;66.80
8338;DHT22;4206;48.634;9.516;2023-07-20T15:41:06;28.30;67.40
8338;DHT22;4206;48.634;9.516;2023-07-20T15:43:32;28.50;67.90
8338;DHT22;4206;48.634;9.516;2023-07-20T15:46:02;28.50;65.70
8338;DHT22;4206;48.634;9.516;2023-07-20T15:48:35;28.40;65.60
8338;DHT22;4206;48.634;9.516;2023-07-20T15:51:02;28.20;67.90
8338;DHT22;4206;48.634;9.516;2023-07-20T15:53:29;28.00;65.50
8338;DHT22;4206;48.634;9.516;2023-07-20T15:55:55;28.00;66.30
8338;DHT22;4206;48.634;9.516;2023-07-20T15:58:23;28.00;67.10
8338;DHT22;4206;48.634;9.516;2023-07-20T16:00:54;28.10;65.90
8338;DHT22;4206;48.634;9.516;2023-07-20T16:03:23;28.30;65.90
8338;DHT22;4206;48.634;9.516;2023-07-20T16:05:52;28.40;65.90
8338;DHT22;4206;48.634;9.516;2023-07-20T16:08:20;28.20;67.50
8338;DHT22;4206;48.634;9.516;2023-07-20T16:10:47;28.20;65.00
8338;DHT22;4206;48.634;9.516;2023-07-20T16:13:14;27.90;65.40
8338;DHT22;4206;48.634;9.516;2023-07-20T16:15:41;27.80;65.80
8338;DHT22;4206;48.634;9.516;2023-07-20T16:18:11;27.80;66.00
8338;DHT22;4206;48.634;9.516;2023-07-20T16:20:38;27.80;66.10
8338;DHT22;4206;48.634;9.516;2023-07-20T16:23:05;27.70;66.30
8338;DHT22;4206;48.634;9.516;2023-07-20T16:25:32;27.70;66.30
8338;DHT22;4206;48.634;9.516;2023-07-20T16:27:59;27.60;64.70
8338;DHT22;4206;48.634;9.516;2023-07-20T16:30:28;27.50;65.60
8338;DHT22;4206;48.634;9.516;2023-07-20T16:32:55;27.30;66.00
8338;DHT22;4206;48.634;9.516;2023-07-20T16:35:23;27.20;66.50
8338;DHT22;4206;48.634;9.516;2023-07-20T16:38:10;27.10;66.00